Time;durP1;ratioP1;P1;durP2;ratioP2;P2;SDS_P1;SDS_P2;PMS_P1;PMS_P2;Temp;Humidity;BMP_temperature;BMP_pressure;BME280_temperature;BME280_humidity;BME280_pressure;Samples;Min_cycle;Max_cycle;Signal;HPM_P1;HPM_P2
2021/09/17 00:02:19;;;;;;;10.13;5.80;;;16.90;99.90;;;;;;5011929;28;20096;-54
2021/09/17 00:04:44;;;;;;;7.50;5.10;;;16.90;99.90;;;;;;5001260;28;20053;-54
2021/09/17 00:07:10;;;;;;;8.20;5.88;;;16.80;99.90;;;;;;4993181;28;20030;-55
2021/09/17 00:09:36;;;;;;;6.20;5.57;;;16.80;99.90;;;;;;4992735;28;20049;-51
2021/09/17 00:12:02;;;;;;;7.65;5.47;;;16.80;99.90;;;;;;4992264;28;20041;-51
2021/09/17 00:14:28;;;;;;;9.10;6.68;;;16.80;99.90;;;;;;5003942;28;20026;-53
2021/09/17 00:16:54;;;;;;;8.38;6.85;;;16.80;99.90;;;;;;5012449;28;20725;-53
2021/09/17 00:19:19;;;;;;;8.15;7.03;;;16.80;99.90;;;;;;5012914;28;20061;-55
2021/09/17 00:21:45;;;;;;;9.07;7.25;;;16.80;99.90;;;;;;5012005;28;20065;-54
2021/09/17 00:24:10;;;;;;;8.25;6.65;;;16.80;99.90;;;;;;5012270;28;20509;-55
2021/09/17 00:26:36;;;;;;;9.25;7.43;;;16.80;99.90;;;;;;5010980;28;20038;-53
2021/09/17 00:29:02;;;;;;;11.25;7.93;;;16.70;99.90;;;;;;5011650;28;20034;-51
2021/09/17 00:31:27;;;;;;;9.57;8.57;;;16.80;99.90;;;;;;5011886;28;20037;-53
2021/09/17 00:33:53;;;;;;;9.77;8.25;;;16.80;99.90;;;;;;5014222;28;20661;-60
2021/09/17 00:36:18;;;;;;;9.70;8.60;;;16.40;99.90;;;;;;5014783;28;20029;-54
2021/09/17 00:38:44;;;;;;;10.65;9.63;;;16.40;99.90;;;;;;5013169;28;20477;-55
2021/09/17 00:41:11;;;;;;;12.13;8.85;;;16.30;99.90;;;;;;5014982;28;20481;-54
2021/09/17 00:43:38;;;;;;;14.30;10.68;;;16.20;99.90;;;;;;5015170;28;20044;-52
2021/09/17 00:46:04;;;;;;;12.35;9.35;;;16.00;99.90;;;;;;5015336;28;20053;-52
2021/09/17 00:48:29;;;;;;;15.48;9.52;;;16.00;99.90;;;;;;5014946;28;20112;-54
2021/09/17 00:50:55;;;;;;;11.93;9.32;;;16.00;99.90;;;;;;5016291;28;20057;-52
2021/09/17 00:53:21;;;;;;;13.68;9.10;;;15.90;99.90;;;;;;5015154;28;20042;-54
2021/09/17 00:55:46;;;;;;;10.38;8.85;;;15.90;99.90;;;;;;5017273;28;20030;-55
2021/09/17 00:58:12;;;;;;;13.52;9.43;;;15.90;99.90;;;;;;5016932;28;20029;-54
2021/09/17 01:00:38;;;;;;;13.32;9.13;;;16.00;99.90;;;;;;5015793;28;20045;-56
2021/09/17 01:03:03;;;;;;;12.68;10.18;;;16.10;99.90;;;;;;5015950;28;20053;-54
2021/09/17 01:05:29;;;;;;;11.38;9.82;;;16.10;99.90;;;;;;4998219;28;20129;-54
2021/09/17 01:07:55;;;;;;;10.60;9.38;;;16.10;99.90;;;;;;4995225;28;20030;-56
2021/09/17 01:10:21;;;;;;;10.50;9.40;;;16.10;99.90;;;;;;4995927;28;20038;-51
2021/09/17 01:12:47;;;;;;;11.55;9.90;;;16.20;99.90;;;;;;4995459;28;20699;-56
2021/09/17 01:15:13;;;;;;;13.38;11.13;;;16.00;99.90;;;;;;5013169;28;20233;-56
2021/09/17 01:17:42;;;;;;;13.25;11.52;;;15.90;99.90;;;;;;5015216;28;20033;-56
2021/09/17 01:20:12;;;;;;;14.73;12.23;;;16.00;99.90;;;;;;5015740;28;20053;-50
2021/09/17 01:22:38;;;;;;;16.90;11.70;;;16.10;99.90;;;;;;5015123;28;20057;-53
2021/09/17 01:25:06;;;;;;;15.63;12.77;;;16.00;99.90;;;;;;5014304;28;20463;-55
2021/09/17 01:27:31;;;;;;;16.48;13.15;;;16.00;99.90;;;;;;5015626;28;20062;-51
2021/09/17 01:29:57;;;;;;;14.93;13.13;;;16.00;99.90;;;;;;5015006;28;20072;-51
2021/09/17 01:32:23;;;;;;;15.13;12.70;;;16.10;99.90;;;;;;5015024;28;20040;-54
2021/09/17 01:34:48;;;;;;;16.02;13.20;;;15.90;99.90;;;;;;5015105;28;20444;-55
2021/09/17 01:37:14;;;;;;;19.70;14.52;;;15.80;99.90;;;;;;5014939;28;20042;-53
2021/09/17 01:39:40;;;;;;;15.63;13.70;;;15.70;99.90;;;;;;5015064;28;20367;-52
2021/09/17 01:42:05;;;;;;;16.80;15.05;;;15.70;99.90;;;;;;5014908;28;20038;-53
2021/09/17 01:44:39;;;;;;;20.98;16.27;;;15.70;99.90;;;;;;5014113;28;20461;-53
2021/09/17 01:47:06;;;;;;;20.13;15.93;;;15.60;99.90;;;;;;5015065;28;20057;-52
2021/09/17 01:49:33;;;;;;;20.05;16.38;;;15.50;99.90;;;;;;5014718;28;20061;-54
2021/09/17 01:51:59;;;;;;;22.15;17.35;;;15.60;99.90;;;;;;5013295;28;20030;-50
2021/09/17 01:54:24;;;;;;;21.50;16.98;;;15.60;99.90;;;;;;5014836;28;20030;-50
2021/09/17 01:56:50;;;;;;;21.88;17.20;;;15.40;99.90;;;;;;5014420;28;20177;-55
2021/09/17 01:59:16;;;;;;;23.38;17.73;;;15.40;99.90;;;;;;5014763;28;20058;-50
2021/09/17 02:01:42;;;;;;;20.73;17.67;;;15.30;99.90;;;;;;5014585;28;20092;-55
2021/09/17 02:04:07;;;;;;;23.08;18.25;;;15.40;99.90;;;;;;5014544;28;20057;-57
2021/09/17 02:06:33;;;;;;;22.70;19.17;;;15.50;99.90;;;;;;5014903;28;20030;-51
2021/09/17 02:09:00;;;;;;;18.73;16.38;;;15.60;99.90;;;;;;5014528;28;20036;-55
2021/09/17 02:11:25;;;;;;;23.95;18.75;;;15.70;99.90;;;;;;5014356;28;20106;-51
2021/09/17 02:13:51;;;;;;;22.58;19.02;;;15.60;99.90;;;;;;5015462;28;20033;-51
2021/09/17 02:16:16;;;;;;;21.17;17.48;;;15.50;99.90;;;;;;5020037;28;20132;-53
2021/09/17 02:18:42;;;;;;;24.67;20.33;;;15.50;99.90;;;;;;5018088;28;20489;-52
2021/09/17 02:21:08;;;;;;;22.10;18.92;;;15.50;99.90;;;;;;5015134;28;20033;-57
2021/09/17 02:23:34;;;;;;;22.48;18.77;;;15.50;99.90;;;;;;5013239;28;20505;-54
2021/09/17 02:25:59;;;;;;;21.80;18.60;;;15.50;99.90;;;;;;5014588;28;20130;-52
2021/09/17 02:28:25;;;;;;;22.95;19.50;;;15.60;99.90;;;;;;5014324;28;20168;-55
2021/09/17 02:30:51;;;;;;;22.15;18.17;;;15.50;99.90;;;;;;5014452;28;20060;-54
2021/09/17 02:33:16;;;;;;;23.48;19.17;;;15.40;99.90;;;;;;5012665;28;20040;-56
2021/09/17 02:35:42;;;;;;;20.75;18.17;;;15.30;99.90;;;;;;5014187;28;20030;-56
2021/09/17 02:38:08;;;;;;;19.38;17.20;;;15.30;99.90;;;;;;5014017;28;20038;-54
2021/09/17 02:40:34;;;;;;;20.02;17.10;;;15.40;99.90;;;;;;5014158;28;20037;-55
2021/09/17 02:42:59;;;;;;;19.92;16.98;;;15.40;99.90;;;;;;5013631;28;20038;-52
2021/09/17 02:45:25;;;;;;;19.45;16.20;;;15.40;99.90;;;;;;5014116;28;20089;-51
2021/09/17 02:47:51;;;;;;;18.60;15.95;;;15.40;99.90;;;;;;5013802;28;20034;-51
2021/09/17 02:50:16;;;;;;;19.10;16.45;;;15.50;99.90;;;;;;5014054;28;20038;-56
2021/09/17 02:52:42;;;;;;;22.60;16.55;;;15.50;99.90;;;;;;5013275;28;20049;-52
2021/09/17 02:55:09;;;;;;;18.85;16.50;;;15.40;99.90;;;;;;5012892;28;20117;-52
2021/09/17 02:57:36;;;;;;;22.13;16.45;;;15.30;99.90;;;;;;5012886;28;20029;-52
2021/09/17 03:00:06;;;;;;;18.73;16.52;;;15.40;99.90;;;;;;5012391;28;20093;-51
2021/09/17 03:02:31;;;;;;;18.58;15.10;;;15.30;99.90;;;;;;5012955;28;20137;-53
2021/09/17 03:04:57;;;;;;;20.13;15.70;;;15.40;99.90;;;;;;5013445;28;20120;-54
2021/09/17 03:07:23;;;;;;;14.18;12.65;;;15.40;99.90;;;;;;5013311;28;20034;-53
2021/09/17 03:09:48;;;;;;;16.08;12.80;;;15.40;99.90;;;;;;5013325;28;20142;-51
2021/09/17 03:12:14;;;;;;;14.52;12.70;;;15.40;99.90;;;;;;5013157;28;20037;-52
2021/09/17 03:14:39;;;;;;;17.52;12.93;;;15.30;99.90;;;;;;5012969;28;20033;-50
2021/09/17 03:17:05;;;;;;;17.25;13.13;;;15.30;99.90;;;;;;5013655;28;20061;-58
2021/09/17 03:19:30;;;;;;;16.73;14.85;;;15.30;99.90;;;;;;5013233;28;20125;-55
2021/09/17 03:21:59;;;;;;;14.93;13.27;;;15.30;99.90;;;;;;5013470;28;20382;-50
2021/09/17 03:24:26;;;;;;;15.68;13.27;;;15.40;99.90;;;;;;5013178;28;20064;-53
2021/09/17 03:26:52;;;;;;;19.80;14.65;;;15.20;99.90;;;;;;5013360;28;20065;-54
2021/09/17 03:29:17;;;;;;;18.75;14.93;;;15.20;99.90;;;;;;5013128;28;20058;-55
2021/09/17 03:31:43;;;;;;;21.75;14.10;;;15.20;99.90;;;;;;5012713;28;20036;-55
2021/09/17 03:34:08;;;;;;;20.42;14.18;;;15.20;99.90;;;;;;5014546;28;20087;-53
2021/09/17 03:36:41;;;;;;;14.90;13.18;;;15.10;99.90;;;;;;5014060;28;20065;-51
2021/09/17 03:39:07;;;;;;;14.68;12.68;;;15.10;99.90;;;;;;5012673;28;20080;-52
2021/09/17 03:41:33;;;;;;;16.73;12.63;;;15.20;99.90;;;;;;5012814;28;20026;-50
2021/09/17 03:43:58;;;;;;;16.88;12.65;;;15.20;99.90;;;;;;5012491;28;20026;-50
2021/09/17 03:46:24;;;;;;;15.15;12.65;;;15.10;99.90;;;;;;5012898;28;20483;-53
2021/09/17 03:48:49;;;;;;;18.08;12.73;;;15.00;99.90;;;;;;5012907;28;20536;-53
2021/09/17 03:51:15;;;;;;;12.43;10.43;;;15.10;99.90;;;;;;5012619;28;20393;-53
2021/09/17 03:53:40;;;;;;;11.85;10.65;;;15.10;99.90;;;;;;5012230;28;20430;-51
2021/09/17 03:56:06;;;;;;;19.27;11.00;;;15.20;99.90;;;;;;5012715;28;20391;-54
2021/09/17 03:58:31;;;;;;;12.88;10.60;;;15.10;99.90;;;;;;5012749;28;20418;-55
2021/09/17 04:00:57;;;;;;;13.60;10.43;;;15.00;99.90;;;;;;5011154;28;20080;-56
2021/09/17 04:03:23;;;;;;;17.65;11.00;;;14.90;99.90;;;;;;5011198;28;20044;-53
2021/09/17 04:05:48;;;;;;;11.68;10.25;;;15.00;99.90;;;;;;5011985;28;20065;-57
2021/09/17 04:08:14;;;;;;;10.68;9.23;;;14.90;99.90;;;;;;5012464;28;20038;-50
2021/09/17 04:10:39;;;;;;;11.70;10.00;;;14.90;99.90;;;;;;5012608;28;20034;-50
2021/09/17 04:13:05;;;;;;;12.60;9.68;;;14.80;99.90;;;;;;5011983;28;20030;-52
2021/09/17 04:15:30;;;;;;;13.85;10.55;;;14.70;99.90;;;;;;5012509;28;20512;-53
2021/09/17 04:17:56;;;;;;;15.85;10.98;;;14.70;99.90;;;;;;5012607;28;20652;-56
2021/09/17 04:20:21;;;;;;;15.75;11.02;;;14.70;99.90;;;;;;5012585;28;20037;-54
2021/09/17 04:22:47;;;;;;;13.32;9.95;;;14.80;99.90;;;;;;5011992;28;20037;-51
2021/09/17 04:25:12;;;;;;;13.80;10.90;;;15.00;99.90;;;;;;5012832;28;20042;-50
2021/09/17 04:27:39;;;;;;;13.65;11.52;;;14.90;99.90;;;;;;5012520;28;20083;-52
2021/09/17 04:30:06;;;;;;;13.95;10.65;;;15.00;99.90;;;;;;5012088;28;20026;-52
2021/09/17 04:32:32;;;;;;;13.32;10.90;;;14.80;99.90;;;;;;5012307;28;20064;-50
2021/09/17 04:34:57;;;;;;;12.73;10.18;;;14.80;99.90;;;;;;5012665;28;20034;-52
2021/09/17 04:37:23;;;;;;;12.25;10.60;;;15.00;99.90;;;;;;5012337;28;20018;-56
2021/09/17 04:39:49;;;;;;;14.10;10.35;;;15.00;99.90;;;;;;5011041;28;20026;-52
2021/09/17 04:42:14;;;;;;;13.02;10.35;;;15.00;99.90;;;;;;5011968;28;20474;-54
2021/09/17 04:44:40;;;;;;;12.35;10.75;;;14.90;99.90;;;;;;5012517;28;20065;-53
2021/09/17 04:47:05;;;;;;;13.02;10.05;;;14.90;99.90;;;;;;5012727;28;20045;-53
2021/09/17 04:49:31;;;;;;;13.57;10.80;;;14.80;99.90;;;;;;5012853;28;20084;-53
2021/09/17 04:51:57;;;;;;;13.23;10.40;;;14.90;99.90;;;;;;5012107;28;20103;-52
2021/09/17 04:54:22;;;;;;;16.90;11.18;;;14.80;99.90;;;;;;5010879;28;20025;-53
2021/09/17 04:56:48;;;;;;;11.68;9.02;;;14.80;99.90;;;;;;5011319;28;20044;-54
2021/09/17 04:59:13;;;;;;;12.68;9.82;;;14.80;99.90;;;;;;5012262;28;20026;-56
2021/09/17 05:01:39;;;;;;;11.20;9.48;;;14.90;99.90;;;;;;5012059;28;20080;-55
2021/09/17 05:04:04;;;;;;;12.18;8.40;;;15.00;99.90;;;;;;5011540;28;20128;-58
2021/09/17 05:06:33;;;;;;;11.82;8.88;;;15.00;99.90;;;;;;5012125;28;20124;-56
2021/09/17 05:08:59;;;;;;;13.23;9.18;;;14.80;99.90;;;;;;5011916;28;20120;-55
2021/09/17 05:11:25;;;;;;;13.25;9.98;;;14.60;99.90;;;;;;5011847;28;20026;-54
2021/09/17 05:13:51;;;;;;;10.88;9.68;;;14.60;99.90;;;;;;5011407;28;20469;-54
2021/09/17 05:16:17;;;;;;;9.38;7.97;;;14.70;99.90;;;;;;5012183;28;20122;-54
2021/09/17 05:18:43;;;;;;;11.18;7.80;;;14.90;99.90;;;;;;5013654;28;20040;-51
2021/09/17 05:21:09;;;;;;;9.30;6.72;;;15.10;99.90;;;;;;5015636;28;20061;-53
2021/09/17 05:23:35;;;;;;;11.45;6.43;;;15.00;99.90;;;;;;5015708;28;20034;-54
2021/09/17 05:26:02;;;;;;;13.07;6.80;;;15.10;99.90;;;;;;5015893;28;20473;-54
2021/09/17 05:28:28;;;;;;;10.73;6.55;;;15.10;99.90;;;;;;5015612;28;20394;-51
2021/09/17 05:30:54;;;;;;;8.40;7.28;;;14.90;99.90;;;;;;5015432;28;20033;-52
2021/09/17 05:33:19;;;;;;;9.90;6.43;;;14.90;99.90;;;;;;5014717;28;20026;-56
2021/09/17 05:35:45;;;;;;;12.52;7.50;;;14.90;99.90;;;;;;5015016;28;20042;-57
2021/09/17 05:38:10;;;;;;;12.48;7.38;;;14.90;99.90;;;;;;5015277;28;20041;-53
2021/09/17 05:40:36;;;;;;;8.82;7.88;;;14.90;99.90;;;;;;5014234;28;20406;-51
2021/09/17 05:43:02;;;;;;;11.27;7.90;;;14.80;99.90;;;;;;5015620;28;20509;-53
2021/09/17 05:45:27;;;;;;;11.30;8.13;;;14.90;99.90;;;;;;5015075;28;20115;-54
2021/09/17 05:47:53;;;;;;;15.95;9.32;;;14.90;99.90;;;;;;5015034;28;20081;-57
2021/09/17 05:50:18;;;;;;;12.48;8.68;;;15.00;99.90;;;;;;5014861;28;20044;-53
2021/09/17 05:52:44;;;;;;;9.77;8.40;;;15.10;99.90;;;;;;5013284;28;20038;-53
2021/09/17 05:55:10;;;;;;;12.13;9.00;;;15.10;99.90;;;;;;5015197;28;20121;-54
2021/09/17 05:57:36;;;;;;;13.63;9.70;;;15.10;99.90;;;;;;5015611;28;20030;-57
2021/09/17 06:00:03;;;;;;;12.73;10.02;;;15.00;99.90;;;;;;5013434;28;20045;-52
2021/09/17 06:02:28;;;;;;;11.50;9.93;;;14.90;99.90;;;;;;5014103;28;20030;-53
2021/09/17 06:04:54;;;;;;;12.15;10.18;;;15.00;99.90;;;;;;5014496;28;20429;-54
2021/09/17 06:07:19;;;;;;;14.80;10.77;;;15.00;99.90;;;;;;5015677;28;20034;-57
2021/09/17 06:09:45;;;;;;;13.57;9.90;;;15.00;99.90;;;;;;5017575;28;20038;-53
2021/09/17 06:12:10;;;;;;;13.65;10.63;;;15.10;99.90;;;;;;5014376;28;20050;-54
2021/09/17 06:14:36;;;;;;;12.98;10.15;;;15.20;99.90;;;;;;5014272;28;20577;-52
2021/09/17 06:17:02;;;;;;;13.70;10.43;;;15.40;99.90;;;;;;5014544;28;20030;-49
2021/09/17 06:19:28;;;;;;;12.85;10.27;;;15.60;99.90;;;;;;5014030;28;20032;-50
2021/09/17 06:21:53;;;;;;;14.45;11.00;;;15.50;99.90;;;;;;5013739;28;20045;-53
2021/09/17 06:24:20;;;;;;;12.07;10.77;;;15.40;99.90;;;;;;5014089;28;20046;-55
2021/09/17 06:26:45;;;;;;;11.93;10.75;;;15.30;99.90;;;;;;5013897;28;20037;-50
2021/09/17 06:29:11;;;;;;;13.18;11.00;;;15.20;99.90;;;;;;5013575;28;20037;-53
2021/09/17 06:31:37;;;;;;;16.48;11.40;;;15.20;99.90;;;;;;5011692;28;20136;-49
2021/09/17 06:34:04;;;;;;;14.15;11.63;;;15.30;99.90;;;;;;4998636;28;20038;-50
2021/09/17 06:36:30;;;;;;;17.25;13.38;;;15.10;99.90;;;;;;4994847;28;20038;-54
2021/09/17 06:38:56;;;;;;;20.50;13.63;;;15.30;99.90;;;;;;4994350;28;20030;-54
2021/09/17 06:41:23;;;;;;;14.02;12.55;;;15.30;99.90;;;;;;5029529;28;20037;-50
2021/09/17 06:43:49;;;;;;;14.88;12.50;;;15.10;99.90;;;;;;5033181;28;20029;-54
2021/09/17 06:46:15;;;;;;;14.18;12.68;;;15.20;99.90;;;;;;5033373;28;20041;-58
2021/09/17 06:48:40;;;;;;;15.30;12.75;;;15.40;99.90;;;;;;5033312;28;20415;-55
2021/09/17 06:51:06;;;;;;;14.48;12.98;;;15.40;99.90;;;;;;5032474;28;20679;-54
2021/09/17 06:53:32;;;;;;;13.10;11.70;;;15.40;99.90;;;;;;5032108;28;20026;-52
2021/09/17 06:55:57;;;;;;;17.73;13.27;;;15.30;99.90;;;;;;5031529;28;20500;-54
2021/09/17 06:58:28;;;;;;;15.63;11.95;;;15.30;99.90;;;;;;5033961;28;20123;-52
2021/09/17 07:00:54;;;;;;;12.45;11.25;;;15.30;99.90;;;;;;5026923;28;20053;-51
2021/09/17 07:03:20;;;;;;;13.27;11.88;;;15.20;99.90;;;;;;5033137;28;20067;-50
2021/09/17 07:05:46;;;;;;;12.18;10.70;;;15.20;99.90;;;;;;5015951;28;20041;-51
2021/09/17 07:08:11;;;;;;;13.60;10.20;;;15.30;99.90;;;;;;5031605;28;20033;-55
2021/09/17 07:10:39;;;;;;;11.77;9.05;;;15.40;99.90;;;;;;5033385;28;20030;-55
2021/09/17 07:13:05;;;;;;;12.27;9.60;;;15.30;99.90;;;;;;5033988;28;20029;-56
2021/09/17 07:15:31;;;;;;;11.88;9.57;;;15.10;99.90;;;;;;5013331;28;20048;-52
2021/09/17 07:17:57;;;;;;;11.32;8.38;;;15.00;99.90;;;;;;5013003;28;20510;-55
2021/09/17 07:20:23;;;;;;;10.13;7.97;;;15.20;99.90;;;;;;5013894;28;20033;-54
2021/09/17 07:22:49;;;;;;;12.77;8.95;;;15.30;99.90;;;;;;5020944;28;20105;-53
2021/09/17 07:25:15;;;;;;;9.93;7.90;;;15.30;99.90;;;;;;5031845;28;20083;-53
2021/09/17 07:27:41;;;;;;;10.55;7.82;;;15.20;99.90;;;;;;5029273;28;20080;-55
2021/09/17 07:30:07;;;;;;;10.63;8.02;;;15.30;99.90;;;;;;5012227;28;20041;-50
2021/09/17 07:32:34;;;;;;;8.38;7.55;;;15.00;99.90;;;;;;5013040;28;20132;-55
2021/09/17 07:35:00;;;;;;;9.32;7.80;;;15.10;99.90;;;;;;5032393;28;20026;-55
2021/09/17 07:37:25;;;;;;;9.75;7.78;;;15.20;99.90;;;;;;5033053;28;20025;-58
2021/09/17 07:39:51;;;;;;;9.18;6.55;;;15.20;99.90;;;;;;5033491;28;20036;-55
2021/09/17 07:42:17;;;;;;;11.32;6.85;;;15.30;99.90;;;;;;5032046;28;20060;-54
2021/09/17 07:44:43;;;;;;;10.65;6.93;;;15.40;99.90;;;;;;5030844;28;20131;-54
2021/09/17 07:47:09;;;;;;;10.70;6.38;;;15.50;99.90;;;;;;5033005;28;20033;-53
2021/09/17 07:49:34;;;;;;;9.32;6.60;;;15.70;99.90;;;;;;5029991;28;20026;-53
2021/09/17 07:52:00;;;;;;;7.70;5.82;;;15.80;99.90;;;;;;5032579;28;20481;-57
2021/09/17 07:54:27;;;;;;;9.13;6.45;;;15.90;99.90;;;;;;5032956;28;20037;-55
2021/09/17 07:56:53;;;;;;;8.27;5.80;;;15.90;99.90;;;;;;5032520;28;20029;-54
2021/09/17 07:59:55;;;;;;;7.13;5.30;;;15.80;99.90;;;;;;5029154;28;20037;-52
2021/09/17 08:02:19;;;;;;;7.00;5.45;;;15.90;99.90;;;;;;5001542;28;20038;-53
2021/09/17 08:04:45;;;;;;;8.57;6.05;;;15.90;99.90;;;;;;4992975;28;20065;-53
2021/09/17 08:07:10;;;;;;;8.57;5.55;;;15.80;99.90;;;;;;5001972;28;20526;-55
2021/09/17 08:09:36;;;;;;;5.93;4.60;;;15.80;99.90;;;;;;5011802;28;20444;-50
2021/09/17 08:12:03;;;;;;;6.18;4.70;;;15.80;99.90;;;;;;5012755;28;20055;-51
2021/09/17 08:14:28;;;;;;;5.72;4.60;;;16.00;99.90;;;;;;5013239;28;20038;-52
2021/09/17 08:16:54;;;;;;;6.47;5.07;;;15.90;99.90;;;;;;5013471;28;20040;-51
2021/09/17 08:19:20;;;;;;;7.72;5.25;;;15.80;99.90;;;;;;5013028;28;20038;-58
2021/09/17 08:21:46;;;;;;;8.60;5.47;;;15.80;99.90;;;;;;5012858;28;20149;-61
2021/09/17 08:24:18;;;;;;;7.97;5.65;;;15.90;99.90;;;;;;5024578;28;20042;-59
2021/09/17 08:26:49;;;;;;;7.75;6.13;;;15.90;99.90;;;;;;5020695;28;20037;-59
2021/09/17 08:29:15;;;;;;;7.18;5.57;;;16.00;99.90;;;;;;5005613;28;20037;-57
2021/09/17 08:31:42;;;;;;;7.25;5.18;;;16.20;99.90;;;;;;5029598;28;20437;-59
2021/09/17 08:34:08;;;;;;;6.50;4.95;;;16.20;99.90;;;;;;5024889;28;20053;-60
2021/09/17 08:36:35;;;;;;;7.60;5.60;;;16.20;99.90;;;;;;5009031;28;20026;-66
2021/09/17 08:39:02;;;;;;;8.13;5.10;;;16.40;99.90;;;;;;5012225;28;20160;-58
2021/09/17 08:41:29;;;;;;;6.72;4.97;;;16.40;99.90;;;;;;5013358;28;20033;-60
2021/09/17 08:43:54;;;;;;;8.60;5.15;;;16.30;99.90;;;;;;5012447;28;20038;-60
2021/09/17 08:46:21;;;;;;;8.20;5.20;;;16.00;99.90;;;;;;5013391;28;20084;-58
2021/09/17 08:48:51;;;;;;;7.13;5.20;;;16.00;99.90;;;;;;5012323;28;20034;-60
2021/09/17 08:51:18;;;;;;;7.72;5.05;;;16.20;99.90;;;;;;5012776;28;20060;-59
2021/09/17 08:53:43;;;;;;;8.23;5.22;;;16.20;99.90;;;;;;5012853;28;20032;-61
2021/09/17 08:56:16;;;;;;;6.72;4.95;;;16.30;99.90;;;;;;5015344;28;20038;-57
2021/09/17 08:58:42;;;;;;;5.72;5.00;;;16.30;99.90;;;;;;5012131;28;20025;-59
2021/09/17 09:01:29;;;;;;;5.05;4.60;;;16.20;99.90;;;;;;5014469;28;20120;-62
2021/09/17 09:03:59;;;;;;;10.07;5.25;;;16.10;99.90;;;;;;5011466;28;20410;-58
2021/09/17 09:06:26;;;;;;;6.60;5.10;;;16.30;99.90;;;;;;5011168;28;20033;-59
2021/09/17 09:08:52;;;;;;;6.90;4.25;;;16.50;99.90;;;;;;5014795;28;20037;-59
2021/09/17 09:11:23;;;;;;;4.82;3.65;;;16.50;99.80;;;;;;5015938;28;20068;-59
2021/09/17 09:14:00;;;;;;;3.90;3.40;;;16.70;99.10;;;;;;5014328;28;20030;-72
2021/09/17 09:16:27;;;;;;;9.07;3.60;;;17.00;98.70;;;;;;5013225;28;20022;-61
2021/09/17 09:18:53;;;;;;;7.60;3.30;;;17.00;98.50;;;;;;5014386;28;20132;-61
2021/09/17 09:21:29;;;;;;;4.00;3.00;;;16.90;98.10;;;;;;5014052;28;20508;-61
2021/09/17 09:24:11;;;;;;;6.80;3.28;;;16.90;97.30;;;;;;5014620;28;20080;-61
2021/09/17 09:26:38;;;;;;;4.95;2.70;;;16.80;97.50;;;;;;5014250;28;20038;-62
2021/09/17 09:29:03;;;;;;;4.28;2.10;;;16.90;97.10;;;;;;5012879;28;20025;-59
2021/09/17 09:31:42;;;;;;;3.92;2.60;;;16.90;95.90;;;;;;5013716;28;20034;-58
2021/09/17 09:34:09;;;;;;;2.80;2.30;;;16.90;96.10;;;;;;5014757;28;20038;-60
2021/09/17 09:36:35;;;;;;;3.53;2.42;;;17.00;95.70;;;;;;5015523;28;20033;-62
2021/09/17 09:39:04;;;;;;;3.03;2.30;;;17.00;96.00;;;;;;5015428;28;20029;-60
2021/09/17 09:41:32;;;;;;;4.28;2.53;;;17.00;95.90;;;;;;5015859;28;20030;-61
2021/09/17 09:44:05;;;;;;;3.00;2.40;;;17.10;95.70;;;;;;5015525;28;20048;-57
2021/09/17 09:47:02;;;;;;;7.63;2.30;;;17.00;96.20;;;;;;5016593;28;20037;-62
2021/09/17 09:49:29;;;;;;;4.40;2.58;;;17.00;95.70;;;;;;5006737;28;20512;-61
2021/09/17 09:52:00;;;;;;;12.15;6.75;;;17.10;95.60;;;;;;5014642;28;20413;-60
2021/09/17 09:54:28;;;;;;;6.43;4.57;;;17.40;96.40;;;;;;5014553;28;20029;-60
2021/09/17 09:56:55;;;;;;;5.55;3.13;;;17.50;95.00;;;;;;5015108;28;20096;-61
2021/09/17 09:59:26;;;;;;;3.85;2.63;;;17.60;94.20;;;;;;5015322;28;20121;-61
2021/09/17 10:01:54;;;;;;;3.97;2.75;;;17.60;93.80;;;;;;5014793;28;20034;-60
2021/09/17 10:04:24;;;;;;;4.65;2.50;;;17.50;94.60;;;;;;5013435;28;20022;-59
2021/09/17 10:07:03;;;;;;;3.80;2.60;;;17.60;93.90;;;;;;5015681;28;20033;-60
2021/09/17 10:09:28;;;;;;;3.80;2.22;;;17.60;93.50;;;;;;5014023;28;20026;-59
2021/09/17 10:11:55;;;;;;;3.30;2.60;;;17.60;92.90;;;;;;5015584;28;20580;-61
2021/09/17 10:14:22;;;;;;;3.97;2.20;;;17.60;93.10;;;;;;5014754;28;20121;-60
2021/09/17 10:16:48;;;;;;;4.32;2.53;;;17.80;93.20;;;;;;5013889;28;20044;-63
2021/09/17 10:19:19;;;;;;;4.43;2.45;;;18.00;93.30;;;;;;5015811;28;20045;-62
2021/09/17 10:21:53;;;;;;;6.50;2.70;;;18.20;93.10;;;;;;5016386;28;20038;-62
2021/09/17 10:24:28;;;;;;;3.58;2.50;;;18.20;93.30;;;;;;5015042;28;20034;-60
2021/09/17 10:26:59;;;;;;;4.43;2.53;;;18.50;92.70;;;;;;5014365;28;20435;-64
2021/09/17 10:29:46;;;;;;;3.47;2.33;;;18.50;92.90;;;;;;5014309;28;20036;-59
2021/09/17 10:32:50;;;;;;;4.57;2.85;;;18.50;92.70;;;;;;5013745;28;20038;-58
2021/09/17 10:35:29;;;;;;;4.85;2.67;;;18.20;92.70;;;;;;4972563;28;20031;-60
2021/09/17 10:37:59;;;;;;;6.78;2.60;;;18.00;93.00;;;;;;5010639;28;20120;-58
2021/09/17 10:40:35;;;;;;;7.38;3.80;;;17.80;93.20;;;;;;5013738;28;20129;-59
2021/09/17 10:43:09;;;;;;;4.20;2.40;;;17.70;93.40;;;;;;5014255;28;20030;-60
2021/09/17 10:45:39;;;;;;;;;;;17.70;93.60;;;;;;5013210;28;20132;-59
2021/09/17 10:48:06;;;;;;;3.55;2.38;;;17.70;93.90;;;;;;5013616;28;19932;-60
2021/09/17 10:50:55;;;;;;;4.70;2.45;;;17.70;93.90;;;;;;5013700;28;20088;-60
2021/09/17 10:53:39;;;;;;;3.83;2.63;;;17.70;94.10;;;;;;5013744;28;20125;-60
2021/09/17 10:56:12;;;;;;;4.53;2.78;;;17.80;94.00;;;;;;5014112;28;20089;-61
2021/09/17 10:58:46;;;;;;;4.43;2.85;;;18.00;93.70;;;;;;5013936;28;20058;-59
2021/09/17 11:01:16;;;;;;;3.25;2.60;;;18.00;93.80;;;;;;5013977;28;20122;-57
2021/09/17 11:03:42;;;;;;;5.07;2.88;;;18.00;94.00;;;;;;5013733;28;20033;-61
2021/09/17 11:06:20;;;;;;;4.78;2.80;;;18.00;93.90;;;;;;5012057;28;20037;-61
2021/09/17 11:08:50;;;;;;;3.97;2.83;;;18.20;93.70;;;;;;5013561;28;20078;-59
2021/09/17 11:11:38;;;;;;;5.63;2.90;;;18.20;93.70;;;;;;5006687;28;20571;-61
2021/09/17 11:14:08;;;;;;;4.10;2.90;;;18.20;94.00;;;;;;5016209;28;20106;-58
2021/09/17 11:16:34;;;;;;;6.43;3.00;;;18.30;93.40;;;;;;5013226;28;20040;-63
2021/09/17 11:19:04;;;;;;;4.60;2.90;;;18.30;93.50;;;;;;5012445;28;20026;-63
2021/09/17 11:21:32;;;;;;;3.83;2.72;;;18.30;93.50;;;;;;5009763;28;20084;-63
2021/09/17 11:23:58;;;;;;;5.28;3.63;;;18.50;93.30;;;;;;5012861;28;20030;-62
2021/09/17 11:26:30;;;;;;;5.03;3.53;;;18.60;93.20;;;;;;5011943;28;20092;-64
2021/09/17 11:29:05;;;;;;;5.43;3.80;;;18.70;93.10;;;;;;5012377;28;20038;-62
2021/09/17 11:31:35;;;;;;;5.03;3.38;;;18.70;93.10;;;;;;5011933;28;20038;-61
2021/09/17 11:34:09;;;;;;;5.85;3.53;;;18.70;93.10;;;;;;5012200;28;20026;-61
2021/09/17 11:36:58;;;;;;;6.25;3.78;;;18.70;92.90;;;;;;5016116;28;20521;-61
2021/09/17 11:39:35;;;;;;;4.30;3.47;;;18.60;93.40;;;;;;5026692;28;20136;-62
2021/09/17 11:42:02;;;;;;;5.57;3.50;;;18.70;93.40;;;;;;5032381;28;20048;-61
2021/09/17 11:44:29;;;;;;;6.72;3.45;;;18.80;93.50;;;;;;5032467;28;20129;-61
2021/09/17 11:46:55;;;;;;;7.82;3.67;;;18.70;92.70;;;;;;5031087;28;20034;-62
2021/09/17 11:49:30;;;;;;;5.03;3.30;;;18.70;93.10;;;;;;5014428;28;20084;-62
2021/09/17 11:52:07;;;;;;;6.40;3.55;;;18.80;92.70;;;;;;5009145;28;20084;-62
2021/09/17 11:54:34;;;;;;;6.55;3.42;;;19.00;92.50;;;;;;5011961;28;20121;-61
2021/09/17 11:57:09;;;;;;;4.43;3.38;;;19.10;91.90;;;;;;5013674;28;20104;-61
2021/09/17 11:59:36;;;;;;;4.97;3.53;;;19.10;91.20;;;;;;4991360;28;20066;-59
2021/09/17 12:02:22;;;;;;;3.45;2.80;;;19.10;91.00;;;;;;5013473;28;20083;-60
2021/09/17 12:04:58;;;;;;;6.50;2.90;;;19.00;91.00;;;;;;5022578;28;20060;-60
2021/09/17 12:07:25;;;;;;;5.60;2.90;;;18.90;90.20;;;;;;5031485;28;20113;-59
2021/09/17 12:09:51;;;;;;;5.25;2.80;;;18.60;90.80;;;;;;5025726;28;20504;-62
2021/09/17 12:12:17;;;;;;;4.55;2.70;;;18.50;91.10;;;;;;5019913;28;20038;-62
2021/09/17 12:14:55;;;;;;;4.35;2.70;;;18.50;90.80;;;;;;5018557;28;20033;-63
2021/09/17 12:17:21;;;;;;;5.00;3.10;;;18.40;91.40;;;;;;5031407;28;20017;-59
2021/09/17 12:19:58;;;;;;;4.32;2.70;;;18.40;91.80;;;;;;5028772;28;20056;-61
2021/09/17 12:22:39;;;;;;;5.32;3.30;;;18.30;91.60;;;;;;5001506;28;20486;-61
2021/09/17 12:25:09;;;;;;;4.45;3.15;;;18.20;91.70;;;;;;5032487;28;20029;-61
2021/09/17 12:27:38;;;;;;;3.88;3.10;;;18.20;91.80;;;;;;5022693;28;20133;-59
2021/09/17 12:30:13;;;;;;;4.28;2.92;;;18.20;91.90;;;;;;5016642;28;20124;-58
2021/09/17 12:32:39;;;;;;;;;;;18.20;92.10;;;;;;5036676;28;20056;-61
2021/09/17 12:35:14;;;;;;;4.70;3.00;;;18.10;92.20;;;;;;5036267;28;20007;-62
2021/09/17 12:37:43;;;;;;;7.00;3.10;;;18.10;92.20;;;;;;5036511;28;20083;-59
2021/09/17 12:40:16;;;;;;;7.28;3.05;;;18.10;92.30;;;;;;5029075;28;20033;-59
2021/09/17 12:42:43;;;;;;;5.22;3.10;;;18.30;92.10;;;;;;5034816;28;20108;-62